Time;durP1;ratioP1;P1;durP2;ratioP2;P2;SDS_P1;SDS_P2;PMS_P1;PMS_P2;Temp;Humidity;BMP_temperature;BMP_pressure;BME280_temperature;BME280_humidity;BME280_pressure;Samples;Min_cycle;Max_cycle;Signal;HPM_P1;HPM_P2
2022/01/18 00:02:05;;;;;;;0.70;0.70;;;-4.40;99.90;;;;;;5047000;28;20280;-67
2022/01/18 00:04:30;;;;;;;0.77;0.77;;;-4.30;99.90;;;;;;5048135;28;20250;-70
2022/01/18 00:06:56;;;;;;;0.73;0.73;;;-4.30;99.90;;;;;;5047566;28;20212;-67
2022/01/18 00:09:24;;;;;;;2.15;1.45;;;-4.30;99.90;;;;;;5030923;28;20205;-67
2022/01/18 00:12:10;;;;;;;0.60;0.60;;;-4.30;99.90;;;;;;5046457;28;20194;-67
2022/01/18 00:14:42;;;;;;;0.70;0.70;;;-4.30;99.90;;;;;;5047262;28;20200;-67
2022/01/18 00:17:24;;;;;;;0.90;0.90;;;-4.30;99.90;;;;;;5045636;28;20316;-67
2022/01/18 00:19:55;;;;;;;0.73;0.73;;;-4.40;99.90;;;;;;5047892;28;20591;-67
2022/01/18 00:22:24;;;;;;;0.70;0.70;;;-4.40;99.90;;;;;;5047220;28;20197;-68
2022/01/18 00:24:50;;;;;;;0.90;0.90;;;-4.50;99.90;;;;;;5047095;28;20193;-68
2022/01/18 00:27:17;;;;;;;0.70;0.70;;;-4.50;99.90;;;;;;5044468;28;20204;-67
2022/01/18 00:29:57;;;;;;;0.88;0.88;;;-4.50;99.90;;;;;;5045429;28;20646;-67
2022/01/18 00:32:37;;;;;;;0.80;0.80;;;-4.50;99.90;;;;;;5043879;28;20197;-67
2022/01/18 00:35:03;;;;;;;0.88;0.88;;;-4.40;99.90;;;;;;5046465;28;20312;-68
2022/01/18 00:37:40;;;;;;;0.88;0.88;;;-4.40;99.90;;;;;;5046533;28;20201;-68
2022/01/18 00:40:07;;;;;;;0.80;0.80;;;-4.30;99.90;;;;;;5046552;28;20205;-68
2022/01/18 00:42:33;;;;;;;0.80;0.80;;;-4.30;99.90;;;;;;5047232;28;20194;-67
2022/01/18 00:44:59;;;;;;;0.70;0.70;;;-4.20;99.90;;;;;;5050586;28;20209;-67
2022/01/18 00:47:26;;;;;;;0.75;0.75;;;-4.20;99.90;;;;;;5050185;28;20545;-69
2022/01/18 00:50:00;;;;;;;0.80;0.80;;;-4.20;99.90;;;;;;5038562;28;20280;-68
2022/01/18 00:52:27;;;;;;;0.80;0.80;;;-4.30;99.90;;;;;;5043679;28;20276;-67
2022/01/18 00:54:53;;;;;;;0.80;0.80;;;-4.30;99.90;;;;;;5032955;28;20206;-67
2022/01/18 00:57:19;;;;;;;0.70;0.70;;;-4.40;99.90;;;;;;5044085;28;20205;-68
2022/01/18 00:59:47;;;;;;;0.70;0.70;;;-4.40;99.90;;;;;;5039119;28;20549;-67
2022/01/18 01:02:13;;;;;;;0.80;0.80;;;-4.50;99.90;;;;;;5043846;28;20550;-67
2022/01/18 01:04:46;;;;;;;0.67;0.67;;;-4.40;99.90;;;;;;5039340;28;20257;-68
2022/01/18 01:07:12;;;;;;;0.70;0.70;;;-4.50;99.90;;;;;;5043888;28;20664;-67
2022/01/18 01:09:38;;;;;;;0.80;0.80;;;-4.50;99.90;;;;;;5038707;28;20202;-67
2022/01/18 01:12:05;;;;;;;0.80;0.80;;;-4.60;99.90;;;;;;5043723;28;20629;-67
2022/01/18 01:14:32;;;;;;;0.75;0.75;;;-4.60;99.90;;;;;;5030631;28;20206;-67
2022/01/18 01:17:23;;;;;;;0.90;0.90;;;-4.70;99.90;;;;;;5035595;28;20339;-67
2022/01/18 01:42:01;;;;;;;0.80;0.80;;;-4.80;99.90;;;;;;5038845;28;20242;-67
2022/01/18 01:44:39;;;;;;;0.70;0.70;;;-4.70;99.90;;;;;;5046913;28;20189;-67
2022/01/18 01:47:05;;;;;;;0.80;0.80;;;-4.60;99.90;;;;;;5047777;28;20659;-68
2022/01/18 01:49:31;;;;;;;0.90;0.90;;;-4.50;99.90;;;;;;5049945;28;20252;-67
2022/01/18 01:51:57;;;;;;;0.70;0.70;;;-4.30;99.90;;;;;;5047200;28;20211;-67
2022/01/18 01:54:23;;;;;;;0.75;0.75;;;-4.30;99.90;;;;;;5037430;28;20801;-67
2022/01/18 01:56:49;;;;;;;0.80;0.80;;;-4.20;99.90;;;;;;5045478;28;20239;-68
2022/01/18 01:59:14;;;;;;;0.80;0.80;;;-4.30;99.90;;;;;;5048054;28;20255;-67
2022/01/18 02:01:45;;;;;;;0.80;0.80;;;-4.30;99.90;;;;;;5046662;28;20654;-68
2022/01/18 02:04:12;;;;;;;0.80;0.80;;;-4.30;99.90;;;;;;5033462;28;20202;-68
2022/01/18 02:06:38;;;;;;;0.80;0.80;;;-4.40;99.90;;;;;;5041285;28;20207;-67
2022/01/18 02:09:04;;;;;;;0.80;0.80;;;-4.50;99.90;;;;;;5019766;28;20213;-67
2022/01/18 02:11:30;;;;;;;0.80;0.80;;;-4.50;99.90;;;;;;5047726;28;20203;-68
2022/01/18 02:13:57;;;;;;;0.80;0.80;;;-4.60;99.90;;;;;;5046894;28;20296;-67
2022/01/18 02:21:51;;;;;;;0.80;0.80;;;-4.80;99.90;;;;;;5047884;28;20256;-68
2022/01/18 02:24:20;;;;;;;0.70;0.70;;;-4.80;99.90;;;;;;5048783;28;20619;-67
2022/01/18 02:26:46;;;;;;;0.85;0.85;;;-4.80;99.90;;;;;;5046444;28;20226;-68
2022/01/18 02:29:13;;;;;;;0.82;0.82;;;-4.90;99.90;;;;;;5047838;28;20232;-67
2022/01/18 02:31:39;;;;;;;0.80;0.80;;;-4.90;99.90;;;;;;5049054;28;20625;-68
2022/01/18 02:34:17;;;;;;;0.70;0.70;;;-4.80;99.90;;;;;;5047714;28;20205;-68
2022/01/18 02:36:43;;;;;;;0.75;0.75;;;-4.80;99.90;;;;;;5049714;28;20307;-68
2022/01/18 02:39:10;;;;;;;0.70;0.70;;;-4.80;99.90;;;;;;5049894;28;20209;-67
2022/01/18 02:41:36;;;;;;;0.88;0.88;;;-4.80;99.90;;;;;;5078612;28;20205;-67
2022/01/18 02:44:09;;;;;;;0.80;0.80;;;-4.80;99.90;;;;;;5047524;28;20664;-67
2022/01/18 02:46:35;;;;;;;0.77;0.77;;;-4.80;99.90;;;;;;5047014;28;20232;-68
2022/01/18 02:49:03;;;;;;;0.70;0.70;;;-4.80;99.90;;;;;;5045886;28;20237;-67
2022/01/18 02:51:29;;;;;;;0.75;0.75;;;-4.80;99.90;;;;;;5046855;28;20271;-68
2022/01/18 02:54:06;;;;;;;0.90;0.90;;;-4.70;99.90;;;;;;5047103;28;20212;-67
2022/01/18 02:56:46;;;;;;;0.80;0.80;;;-4.60;99.90;;;;;;5039309;28;20205;-68
2022/01/18 02:59:19;;;;;;;0.90;0.90;;;-4.60;99.90;;;;;;5043407;28;20668;-68
2022/01/18 03:04:32;;;;;;;0.82;0.82;;;-4.50;99.90;;;;;;5045675;28;20695;-68
2022/01/18 03:06:57;;;;;;;0.90;0.90;;;-4.50;99.90;;;;;;5048206;28;20669;-67
2022/01/18 03:09:23;;;;;;;0.88;0.88;;;-4.50;99.90;;;;;;5047761;28;20252;-69
2022/01/18 03:11:49;;;;;;;0.90;0.90;;;-4.50;99.90;;;;;;5046667;28;20205;-74
2022/01/18 03:14:15;;;;;;;0.90;0.90;;;-4.50;99.90;;;;;;5047001;28;20217;-67
2022/01/18 03:16:40;;;;;;;0.82;0.82;;;-4.50;99.90;;;;;;5046617;28;20718;-68
2022/01/18 03:19:06;;;;;;;0.70;0.70;;;-4.50;99.90;;;;;;5044399;28;20288;-68
2022/01/18 03:21:32;;;;;;;0.80;0.80;;;-4.50;99.90;;;;;;5047489;28;20200;-67
2022/01/18 03:24:21;;;;;;;0.70;0.70;;;-4.50;99.90;;;;;;5045378;28;20388;-67
2022/01/18 03:29:31;;;;;;;0.80;0.80;;;-4.40;99.90;;;;;;5046363;28;20384;-68
2022/01/18 03:31:56;;;;;;;0.80;0.80;;;-4.40;99.90;;;;;;5047713;28;20296;-67
2022/01/18 03:34:47;;;;;;;0.82;0.82;;;-4.40;99.90;;;;;;5045819;28;20209;-68
2022/01/18 03:37:13;;;;;;;0.80;0.80;;;-4.30;99.90;;;;;;5047646;28;20294;-67
2022/01/18 03:39:39;;;;;;;0.80;0.80;;;-4.30;99.90;;;;;;5046149;28;20284;-68
2022/01/18 03:44:49;;;;;;;0.80;0.80;;;-4.30;99.90;;;;;;5047893;28;20677;-67
2022/01/18 03:47:17;;;;;;;0.70;0.70;;;-4.30;99.90;;;;;;5046689;28;20292;-68
2022/01/18 03:49:42;;;;;;;0.73;0.73;;;-4.20;99.90;;;;;;5046104;28;20208;-67
2022/01/18 03:52:08;;;;;;;0.82;0.82;;;-4.20;99.90;;;;;;5046351;28;20209;-67
2022/01/18 03:54:41;;;;;;;0.80;0.80;;;-4.20;99.90;;;;;;5044655;28;20668;-68
2022/01/18 03:57:08;;;;;;;0.70;0.70;;;-4.20;99.90;;;;;;5041521;28;20205;-67
2022/01/18 03:59:33;;;;;;;0.90;0.90;;;-4.20;99.90;;;;;;5045740;28;20317;-67
2022/01/18 04:01:59;;;;;;;0.90;0.90;;;-4.20;99.90;;;;;;5033458;28;20289;-68
2022/01/18 04:04:25;;;;;;;0.80;0.80;;;-4.20;99.90;;;;;;5034104;28;20212;-67
2022/01/18 04:06:50;;;;;;;0.90;0.90;;;-4.30;99.90;;;;;;5030645;28;20191;-67
2022/01/18 04:09:16;;;;;;;1.15;1.15;;;-4.30;99.90;;;;;;5047591;28;20204;-68
2022/01/18 04:11:42;;;;;;;0.80;0.80;;;-4.20;99.90;;;;;;5030558;28;20225;-68
2022/01/18 04:14:08;;;;;;;0.80;0.80;;;-4.20;99.90;;;;;;5048475;28;20201;-67
2022/01/18 04:16:43;;;;;;;0.80;0.80;;;-4.20;99.90;;;;;;5032841;28;20198;-68
2022/01/18 04:27:27;;;;;;;0.70;0.70;;;-4.20;99.90;;;;;;5033468;28;20354;-67
2022/01/18 04:29:53;;;;;;;0.80;0.80;;;-4.20;99.90;;;;;;5039407;28;20298;-67
2022/01/18 04:32:18;;;;;;;0.80;0.80;;;-4.20;99.90;;;;;;5050912;28;20643;-67
2022/01/18 04:34:44;;;;;;;0.77;0.77;;;-4.20;99.90;;;;;;5046365;28;20580;-68
2022/01/18 04:37:10;;;;;;;0.82;0.82;;;-4.10;99.90;;;;;;5035542;28;20683;-67
2022/01/18 04:39:40;;;;;;;0.90;0.90;;;-4.10;99.90;;;;;;5034383;28;20212;-67
2022/01/18 04:42:17;;;;;;;0.70;0.70;;;-4.10;99.90;;;;;;5035675;28;20669;-68
2022/01/18 04:50:10;;;;;;;0.70;0.70;;;-4.10;99.90;;;;;;5049914;28;20212;-67
2022/01/18 04:52:36;;;;;;;0.80;0.80;;;-4.20;99.90;;;;;;5050204;28;20197;-68
2022/01/18 04:55:04;;;;;;;0.80;0.80;;;-4.20;99.90;;;;;;5037087;28;20241;-67
2022/01/18 05:00:15;;;;;;;0.70;0.70;;;-4.20;99.90;;;;;;5050458;28;20700;-67
2022/01/18 05:02:40;;;;;;;0.80;0.80;;;-4.20;99.90;;;;;;5048997;28;20229;-67
2022/01/18 05:05:08;;;;;;;0.80;0.80;;;-4.20;99.90;;;;;;5049272;28;20688;-68
2022/01/18 05:07:34;;;;;;;0.95;0.95;;;-4.30;99.90;;;;;;5049354;28;20281;-68
2022/01/18 05:10:00;;;;;;;0.57;0.57;;;-4.30;99.90;;;;;;5048981;28;20720;-67
2022/01/18 05:12:45;;;;;;;0.73;0.73;;;-4.30;99.90;;;;;;5049534;28;20621;-68
2022/01/18 05:15:37;;;;;;;0.75;0.75;;;-4.30;99.90;;;;;;5017832;28;20252;-68
2022/01/18 05:23:19;;;;;;;0.60;0.60;;;-4.30;99.90;;;;;;5049315;28;20205;-68
2022/01/18 05:25:46;;;;;;;0.70;0.70;;;-4.30;99.90;;;;;;5048892;28;20292;-67
2022/01/18 05:28:13;;;;;;;0.70;0.70;;;-4.30;99.90;;;;;;5049233;28;20205;-69
2022/01/18 05:30:39;;;;;;;0.70;0.70;;;-4.30;99.90;;;;;;5048729;28;20214;-67
2022/01/18 05:33:06;;;;;;;0.77;0.77;;;-4.40;99.90;;;;;;5048835;28;20212;-68
2022/01/18 05:35:32;;;;;;;0.60;0.60;;;-4.40;99.90;;;;;;5033167;28;20696;-68
2022/01/18 05:37:58;;;;;;;0.80;0.80;;;-4.40;99.90;;;;;;5050451;28;20201;-67
2022/01/18 05:40:24;;;;;;;0.77;0.77;;;-4.30;99.90;;;;;;5048950;28;20730;-68
2022/01/18 05:42:50;;;;;;;0.80;0.80;;;-4.40;99.90;;;;;;5049691;28;20205;-67
2022/01/18 05:45:17;;;;;;;0.68;0.68;;;-4.40;99.90;;;;;;5047103;28;20202;-68
2022/01/18 05:47:43;;;;;;;0.80;0.80;;;-4.40;99.90;;;;;;5048315;28;20238;-68
2022/01/18 05:50:10;;;;;;;0.90;0.90;;;-4.50;99.90;;;;;;5048582;28;20263;-67
2022/01/18 05:52:36;;;;;;;0.80;0.80;;;-4.50;99.90;;;;;;5047639;28;20293;-71
2022/01/18 05:55:03;;;;;;;0.70;0.70;;;-4.50;99.90;;;;;;5046042;28;20671;-68
2022/01/18 05:57:29;;;;;;;0.85;0.85;;;-4.60;99.90;;;;;;5044628;28;20622;-68
2022/01/18 06:00:01;;;;;;;0.77;0.77;;;-4.60;99.90;;;;;;5047905;28;20229;-68
2022/01/18 06:02:37;;;;;;;0.80;0.80;;;-4.60;99.90;;;;;;5046524;28;20225;-68
2022/01/18 06:07:48;;;;;;;0.70;0.70;;;-4.60;99.90;;;;;;5048485;28;20204;-67
2022/01/18 06:10:13;;;;;;;0.75;0.75;;;-4.60;99.90;;;;;;5048133;28;20210;-67
2022/01/18 06:12:40;;;;;;;0.70;0.70;;;-4.60;99.90;;;;;;5046486;28;20213;-67
2022/01/18 06:15:07;;;;;;;0.80;0.80;;;-4.70;99.90;;;;;;5049002;28;20294;-68
2022/01/18 06:17:33;;;;;;;0.70;0.70;;;-4.70;99.90;;;;;;5048796;28;20236;-67
2022/01/18 06:19:58;;;;;;;0.80;0.80;;;-4.80;99.90;;;;;;5031961;28;20210;-68
2022/01/18 06:22:24;;;;;;;0.90;0.90;;;-4.70;99.90;;;;;;5027544;28;20201;-69
2022/01/18 06:24:50;;;;;;;0.80;0.80;;;-4.70;99.90;;;;;;5048957;28;20205;-68
2022/01/18 06:27:15;;;;;;;0.80;0.80;;;-4.70;99.90;;;;;;5048744;28;20231;-68
2022/01/18 06:29:41;;;;;;;0.80;0.80;;;-4.80;99.90;;;;;;5047268;28;20633;-68
2022/01/18 06:32:08;;;;;;;0.95;0.95;;;-4.70;99.90;;;;;;5032486;28;20206;-68
2022/01/18 06:34:33;;;;;;;0.73;0.73;;;-4.70;99.90;;;;;;5048308;28;20548;-69
2022/01/18 06:36:59;;;;;;;0.73;0.73;;;-4.80;99.90;;;;;;5048857;28;20320;-69
2022/01/18 06:39:25;;;;;;;0.82;0.82;;;-4.80;99.90;;;;;;5030985;28;20220;-69
2022/01/18 06:41:51;;;;;;;0.90;0.90;;;-4.80;99.90;;;;;;5048514;28;20280;-69
2022/01/18 06:44:17;;;;;;;0.80;0.80;;;-4.90;99.90;;;;;;5049860;28;20189;-68
2022/01/18 06:46:43;;;;;;;0.90;0.90;;;-4.90;99.90;;;;;;5029957;28;20198;-68
2022/01/18 06:49:08;;;;;;;0.70;0.70;;;-4.90;99.90;;;;;;5045923;28;20205;-69
2022/01/18 06:51:34;;;;;;;0.80;0.80;;;-5.00;99.90;;;;;;5048145;28;20521;-67
2022/01/18 06:54:00;;;;;;;0.70;0.70;;;-5.00;99.90;;;;;;5034981;28;20575;-68
2022/01/18 06:56:26;;;;;;;0.80;0.80;;;-5.10;99.90;;;;;;5032581;28;20734;-67
2022/01/18 06:58:53;;;;;;;0.70;0.70;;;-5.10;99.90;;;;;;5041987;28;20217;-67
2022/01/18 07:01:20;;;;;;;0.80;0.80;;;-5.10;99.90;;;;;;5046533;28;20592;-69
2022/01/18 07:03:48;;;;;;;0.70;0.70;;;-5.10;99.90;;;;;;5048026;28;20609;-68
2022/01/18 07:06:15;;;;;;;0.70;0.70;;;-5.20;99.90;;;;;;5046872;28;20609;-68
2022/01/18 07:08:41;;;;;;;0.80;0.80;;;-5.20;99.90;;;;;;5046751;28;20570;-68
2022/01/18 07:11:07;;;;;;;0.80;0.80;;;-5.30;99.90;;;;;;5046784;28;20201;-68
2022/01/18 07:13:33;;;;;;;0.83;0.83;;;-5.30;99.90;;;;;;5036247;28;20199;-68
2022/01/18 07:15:59;;;;;;;0.83;0.83;;;-5.30;99.90;;;;;;5024840;28;20234;-68
2022/01/18 07:18:25;;;;;;;0.70;0.70;;;-5.30;99.90;;;;;;5046619;28;20201;-68
2022/01/18 07:20:51;;;;;;;0.70;0.70;;;-5.30;99.90;;;;;;5040462;28;20589;-70
2022/01/18 07:23:17;;;;;;;0.80;0.80;;;-5.30;99.90;;;;;;5020198;28;20201;-67
2022/01/18 07:25:46;;;;;;;0.80;0.80;;;-5.40;99.90;;;;;;5046548;28;20203;-68
2022/01/18 07:28:18;;;;;;;0.90;0.90;;;-5.40;99.90;;;;;;5030397;28;20248;-68
2022/01/18 07:30:44;;;;;;;0.70;0.70;;;-5.40;99.90;;;;;;5047541;28;20209;-67
2022/01/18 07:33:12;;;;;;;0.83;0.83;;;-5.40;99.90;;;;;;5047783;28;20312;-67
2022/01/18 07:35:39;;;;;;;0.80;0.80;;;-5.40;99.90;;;;;;5013870;28;20611;-68
2022/01/18 07:38:05;;;;;;;0.80;0.80;;;-5.40;99.90;;;;;;5048918;28;20280;-68
2022/01/18 07:40:33;;;;;;;0.90;0.90;;;-5.40;99.90;;;;;;5031062;28;20697;-69
2022/01/18 07:43:01;;;;;;;0.90;0.90;;;-5.50;99.90;;;;;;5048717;28;20189;-67
2022/01/18 07:45:28;;;;;;;2.07;1.97;;;-5.50;99.90;;;;;;5048456;28;20205;-69
2022/01/18 07:47:54;;;;;;;0.90;0.90;;;-5.50;99.90;;;;;;5045511;28;20280;-67
2022/01/18 07:50:20;;;;;;;0.80;0.80;;;-5.60;99.90;;;;;;5044173;28;20639;-68
2022/01/18 07:52:45;;;;;;;0.87;0.87;;;-5.60;99.90;;;;;;5045563;28;20201;-68
2022/01/18 07:55:11;;;;;;;0.80;0.80;;;-5.60;99.90;;;;;;5047291;28;20561;-68
2022/01/18 07:57:41;;;;;;;0.80;0.80;;;-5.60;99.90;;;;;;5043880;28;20217;-68
2022/01/18 08:00:13;;;;;;;0.80;0.80;;;-5.60;99.90;;;;;;5047101;28;20312;-69
2022/01/18 08:02:45;;;;;;;0.80;0.80;;;-5.60;99.90;;;;;;5046990;28;20225;-69
2022/01/18 08:05:12;;;;;;;0.80;0.80;;;-5.50;99.90;;;;;;5047269;28;20660;-68
2022/01/18 08:07:38;;;;;;;0.88;0.88;;;-5.50;99.90;;;;;;5046962;28;20624;-67
2022/01/18 08:10:06;;;;;;;0.80;0.80;;;-5.40;99.90;;;;;;5044778;28;20216;-69
2022/01/18 08:12:32;;;;;;;1.00;1.00;;;-5.40;99.90;;;;;;5046882;28;20621;-68
2022/01/18 08:15:11;;;;;;;0.80;0.80;;;-5.20;99.90;;;;;;5043523;28;20209;-68
2022/01/18 08:17:37;;;;;;;0.80;0.80;;;-5.20;99.90;;;;;;5045795;28;20248;-68
2022/01/18 08:20:03;;;;;;;0.70;0.70;;;-5.10;99.90;;;;;;5047075;28;20585;-68
2022/01/18 08:22:28;;;;;;;0.80;0.80;;;-5.10;99.90;;;;;;5043034;28;20237;-69
2022/01/18 08:24:54;;;;;;;0.80;0.80;;;-5.10;99.90;;;;;;5033970;28;20252;-69
2022/01/18 08:27:21;;;;;;;0.80;0.80;;;-5.10;99.90;;;;;;5045763;28;20594;-68
2022/01/18 08:29:47;;;;;;;0.70;0.70;;;-5.00;99.90;;;;;;5045964;28;20206;-68
2022/01/18 08:32:12;;;;;;;0.70;0.70;;;-4.90;99.90;;;;;;5045020;28;20248;-69
2022/01/18 08:34:38;;;;;;;0.68;0.68;;;-4.90;99.90;;;;;;5046743;28;20638;-68
2022/01/18 08:37:05;;;;;;;0.80;0.80;;;-4.80;99.90;;;;;;5046058;28;20201;-68
2022/01/18 08:39:31;;;;;;;0.70;0.70;;;-4.80;99.90;;;;;;5048148;28;20209;-68
2022/01/18 08:41:56;;;;;;;0.73;0.73;;;-4.80;99.90;;;;;;5048200;28;20208;-69
2022/01/18 08:44:22;;;;;;;0.70;0.70;;;-4.70;99.90;;;;;;5046411;28;20292;-68
2022/01/18 08:46:48;;;;;;;0.80;0.80;;;-4.60;99.90;;;;;;5044371;28;20204;-68
2022/01/18 08:49:14;;;;;;;0.70;0.70;;;-4.60;99.90;;;;;;5046589;28;20657;-69
2022/01/18 08:51:39;;;;;;;0.80;0.80;;;-4.50;99.90;;;;;;5044151;28;20213;-69
2022/01/18 08:54:05;;;;;;;0.80;0.80;;;-4.50;99.90;;;;;;5046783;28;20232;-68
2022/01/18 08:56:31;;;;;;;0.80;0.80;;;-4.50;99.90;;;;;;5037824;28;20591;-68
2022/01/18 08:58:57;;;;;;;0.95;0.95;;;-4.40;99.90;;;;;;5040366;28;20566;-67
2022/01/18 09:01:26;;;;;;;0.90;0.90;;;-4.40;99.90;;;;;;5025140;28;20309;-68
2022/01/18 09:03:52;;;;;;;0.90;0.90;;;-4.30;99.90;;;;;;5032448;28;20254;-67
2022/01/18 09:06:19;;;;;;;0.80;0.80;;;-4.30;99.90;;;;;;5047950;28;20197;-69
2022/01/18 09:08:54;;;;;;;0.80;0.80;;;-4.20;99.90;;;;;;5050419;28;20206;-68
2022/01/18 09:11:21;;;;;;;0.87;0.87;;;-4.20;99.90;;;;;;5048900;28;20200;-69
2022/01/18 09:13:46;;;;;;;0.80;0.80;;;-4.10;99.90;;;;;;5049287;28;20213;-67
2022/01/18 09:16:12;;;;;;;0.82;0.82;;;-4.10;99.90;;;;;;5050286;28;20213;-68
2022/01/18 09:18:38;;;;;;;0.80;0.80;;;-4.10;99.90;;;;;;5046006;28;20622;-67
2022/01/18 09:21:06;;;;;;;0.70;0.70;;;-4.10;99.90;;;;;;5036637;28;20558;-68
2022/01/18 09:23:32;;;;;;;0.80;0.80;;;-4.00;99.90;;;;;;5046892;28;20198;-68
2022/01/18 09:25:58;;;;;;;0.80;0.80;;;-3.90;99.90;;;;;;5049945;28;20198;-67
2022/01/18 09:28:23;;;;;;;0.70;0.70;;;-3.90;99.90;;;;;;5047972;28;20258;-68
2022/01/18 09:30:49;;;;;;;0.80;0.80;;;-3.90;99.90;;;;;;5050461;28;20264;-68
2022/01/18 09:33:15;;;;;;;0.70;0.70;;;-3.80;99.90;;;;;;5051112;28;20233;-69
2022/01/18 09:35:40;;;;;;;0.80;0.80;;;-3.60;99.90;;;;;;5051211;28;20687;-73
2022/01/18 09:38:07;;;;;;;0.70;0.70;;;-3.60;99.90;;;;;;5048991;28;20292;-68
2022/01/18 09:40:37;;;;;;;0.90;0.90;;;-3.40;99.90;;;;;;5046876;28;20277;-68
2022/01/18 09:43:09;;;;;;;0.77;0.77;;;-3.40;99.90;;;;;;5048694;28;20378;-67
2022/01/18 09:45:35;;;;;;;0.70;0.70;;;-3.30;99.90;;;;;;5048539;28;20194;-68
2022/01/18 09:48:03;;;;;;;0.70;0.70;;;-3.10;99.90;;;;;;5036118;28;20206;-68
2022/01/18 09:50:33;;;;;;;0.60;0.60;;;-3.00;99.90;;;;;;5045424;28;20202;-69
2022/01/18 09:53:00;;;;;;;0.80;0.80;;;-3.00;99.90;;;;;;5036458;28;20233;-69
2022/01/18 09:55:30;;;;;;;0.75;0.75;;;-2.80;99.90;;;;;;5043911;28;20244;-68
2022/01/18 09:57:56;;;;;;;0.73;0.73;;;-2.60;99.90;;;;;;5016041;28;20211;-67
2022/01/18 10:00:25;;;;;;;0.80;0.80;;;-2.60;99.90;;;;;;5041048;28;20221;-68
2022/01/18 10:02:51;;;;;;;0.70;0.70;;;-2.50;99.90;;;;;;5021555;28;20237;-68
2022/01/18 10:05:21;;;;;;;0.80;0.80;;;-2.30;99.90;;;;;;5040942;28;20677;-68
2022/01/18 10:08:11;;;;;;;0.80;0.80;;;-2.20;99.90;;;;;;5025258;28;20206;-68
2022/01/18 10:10:46;;;;;;;0.65;0.65;;;-2.00;99.90;;;;;;5045098;28;20214;-68
2022/01/18 10:13:23;;;;;;;0.60;0.60;;;-1.70;99.90;;;;;;5034259;28;20579;-69
2022/01/18 10:15:58;;;;;;;0.60;0.60;;;-1.50;99.90;;;;;;5038973;28;20697;-68
2022/01/18 10:18:36;;;;;;;0.75;0.75;;;-1.30;99.90;;;;;;5014028;28;20221;-69
2022/01/18 10:21:02;;;;;;;4.07;2.83;;;-1.20;99.90;;;;;;5048947;28;20224;-68
2022/01/18 10:23:28;;;;;;;0.60;0.60;;;-1.10;99.90;;;;;;5032568;28;20293;-68
2022/01/18 10:25:54;;;;;;;0.70;0.70;;;-1.00;99.90;;;;;;5030870;28;20717;-68
2022/01/18 10:28:31;;;;;;;0.82;0.82;;;-0.90;99.90;;;;;;5032346;28;20285;-68
2022/01/18 10:31:00;;;;;;;0.70;0.70;;;-0.90;99.90;;;;;;5048036;28;20201;-68
2022/01/18 10:33:30;;;;;;;0.77;0.77;;;-0.90;99.90;;;;;;5049525;28;20201;-68
2022/01/18 10:36:11;;;;;;;1.50;1.20;;;-0.80;99.90;;;;;;5047941;28;20217;-68
2022/01/18 10:38:38;;;;;;;0.80;0.80;;;-0.70;99.90;;;;;;5030794;28;20206;-68
2022/01/18 10:41:28;;;;;;;0.80;0.80;;;-0.60;99.90;;;;;;5050203;28;20665;-69
2022/01/18 10:44:10;;;;;;;0.88;0.88;;;-0.60;99.90;;;;;;5016462;28;20197;-68
2022/01/18 10:46:41;;;;;;;0.65;0.65;;;-0.60;99.90;;;;;;5046079;28;20206;-68
2022/01/18 10:49:08;;;;;;;0.57;0.57;;;-0.60;99.90;;;;;;5048483;28;20681;-68
2022/01/18 10:51:36;;;;;;;0.70;0.70;;;-0.60;99.90;;;;;;5048551;28;20225;-68
2022/01/18 10:54:09;;;;;;;0.68;0.68;;;-0.50;99.90;;;;;;5047966;28;20194;-68
2022/01/18 10:56:47;;;;;;;0.80;0.80;;;-0.50;99.90;;;;;;5021156;28;20198;-68
2022/01/18 10:59:24;;;;;;;0.70;0.70;;;-0.50;99.90;;;;;;5013221;28;20194;-70
2022/01/18 11:02:14;;;;;;;0.70;0.70;;;-0.50;99.90;;;;;;5047903;28;20213;-68
2022/01/18 11:04:49;;;;;;;0.70;0.70;;;-0.50;99.90;;;;;;5044218;28;20206;-68
2022/01/18 11:07:17;;;;;;;0.73;0.73;;;-0.40;99.90;;;;;;5034262;28;20196;-68
2022/01/18 11:09:43;;;;;;;0.75;0.75;;;-0.40;99.90;;;;;;5044950;28;20313;-68
2022/01/18 11:12:11;;;;;;;0.70;0.70;;;-0.40;99.90;;;;;;5033432;28;20193;-68
2022/01/18 11:14:40;;;;;;;0.60;0.60;;;-0.40;99.90;;;;;;5046726;28;20264;-68
2022/01/18 11:17:08;;;;;;;0.60;0.60;;;-0.40;99.90;;;;;;5047987;28;20680;-68
2022/01/18 11:19:37;;;;;;;0.70;0.70;;;-0.30;99.90;;;;;;5047508;28;20254;-68
2022/01/18 11:22:10;;;;;;;0.60;0.60;;;-0.30;99.90;;;;;;5045594;28;20280;-69
2022/01/18 11:24:39;;;;;;;0.65;0.65;;;-0.30;99.90;;;;;;5030123;28;20198;-70
2022/01/18 11:27:10;;;;;;;0.70;0.70;;;-0.20;99.90;;;;;;5013799;28;20198;-69
2022/01/18 11:29:36;;;;;;;0.50;0.50;;;-0.20;99.90;;;;;;5014130;28;20253;-68
2022/01/18 11:32:03;;;;;;;0.60;0.60;;;-0.20;99.90;;;;;;5048283;28;20201;-68
2022/01/18 11:34:39;;;;;;;0.73;0.73;;;-0.10;99.90;;;;;;5047450;28;20675;-69
2022/01/18 11:37:26;;;;;;;0.75;0.75;;;-0.10;99.90;;;;;;5030006;28;20202;-68
2022/01/18 11:40:17;;;;;;;0.80;0.80;;;-0.10;99.90;;;;;;5046647;28;20688;-68
2022/01/18 11:42:50;;;;;;;0.77;0.77;;;-0.10;99.90;;;;;;5014769;28;20260;-69
2022/01/18 11:45:25;;;;;;;0.68;0.68;;;-0.20;99.90;;;;;;5047571;28;20194;-68
2022/01/18 11:48:05;;;;;;;0.70;0.70;;;-0.20;99.90;;;;;;5045956;28;20205;-68
2022/01/18 11:50:36;;;;;;;0.70;0.70;;;-0.30;99.90;;;;;;5044957;28;20699;-73
2022/01/18 11:53:26;;;;;;;1.17;1.08;;;-0.40;99.90;;;;;;5030757;28;20242;-69
2022/01/18 11:55:56;;;;;;;0.80;0.80;;;-0.40;99.90;;;;;;5044238;28;20202;-68
2022/01/18 11:58:23;;;;;;;0.90;0.90;;;-0.50;99.90;;;;;;5033000;28;20201;-69
2022/01/18 12:00:58;;;;;;;0.80;0.80;;;-0.40;99.90;;;;;;5046971;28;20639;-69
2022/01/18 12:03:41;;;;;;;5.97;1.85;;;-0.50;99.90;;;;;;5045641;28;20233;-70
2022/01/18 12:06:08;;;;;;;0.60;0.60;;;-0.50;99.90;;;;;;5044725;28;20201;-71
2022/01/18 12:08:42;;;;;;;0.90;0.90;;;-0.50;99.90;;;;;;5040728;28;20619;-70
2022/01/18 12:11:33;;;;;;;0.60;0.60;;;-0.50;99.90;;;;;;5041160;28;20717;-70
2022/01/18 12:14:00;;;;;;;0.70;0.70;;;-0.40;99.90;;;;;;5034452;28;20661;-69
2022/01/18 12:16:29;;;;;;;0.70;0.70;;;-0.40;99.90;;;;;;5046888;28;20205;-73
2022/01/18 12:19:07;;;;;;;0.60;0.60;;;-0.30;99.90;;;;;;5046097;28;20292;-69
2022/01/18 12:21:35;;;;;;;0.70;0.70;;;-0.20;99.90;;;;;;5044735;28;20209;-69
2022/01/18 12:24:27;;;;;;;0.63;0.63;;;-0.20;99.90;;;;;;5044741;28;20201;-69
2022/01/18 12:27:00;;;;;;;0.70;0.70;;;-0.10;99.90;;;;;;5042435;28;20213;-70
2022/01/18 12:34:50;;;;;;;0.60;0.60;;;0.10;99.90;;;;;;5046585;28;20209;-70
2022/01/18 12:39:51;;;;;;;0.70;0.70;;;0.10;99.90;;;;;;5050949;28;20540;-69
2022/01/18 12:45:15;;;;;;;0.70;0.70;;;0.00;99.90;;;;;;5048619;28;20223;-70
2022/01/18 12:47:48;;;;;;;0.88;0.88;;;0.00;99.90;;;;;;5049500;28;20208;-69
2022/01/18 12:50:19;;;;;;;0.60;0.60;;;0.10;99.90;;;;;;5048291;28;20220;-71
2022/01/18 12:52:53;;;;;;;0.70;0.70;;;0.20;99.90;;;;;;5048172;28;20732;-71
2022/01/18 12:55:27;;;;;;;0.65;0.65;;;0.20;99.90;;;;;;5050423;28;20198;-70
2022/01/18 12:58:06;;;;;;;0.68;0.68;;;0.10;99.90;;;;;;5050543;28;20250;-71
2022/01/18 13:00:51;;;;;;;0.70;0.70;;;0.10;99.90;;;;;;5046992;28;20257;-72
2022/01/18 13:03:20;;;;;;;0.70;0.70;;;0.10;99.90;;;;;;5050550;28;20677;-70
2022/01/18 13:05:48;;;;;;;0.70;0.70;;;0.00;99.90;;;;;;5033952;28;20283;-70
2022/01/18 13:08:17;;;;;;;0.70;0.70;;;-0.10;99.90;;;;;;5049485;28;20731;-70
2022/01/18 13:10:49;;;;;;;0.70;0.70;;;-0.10;99.90;;;;;;5043314;28;20316;-70
2022/01/18 13:13:19;;;;;;;0.73;0.73;;;-0.20;99.90;;;;;;5041875;28;20283;-69
2022/01/18 13:27:30;;;;;;;0.70;0.70;;;-0.30;99.90;;;;;;5030621;28;20217;-69
2022/01/18 13:30:09;;;;;;;0.70;0.70;;;-0.30;99.90;;;;;;5031078;28;20681;-68
2022/01/18 13:32:36;;;;;;;0.80;0.80;;;-0.40;99.90;;;;;;5031471;28;20206;-69
2022/01/18 13:35:05;;;;;;;0.80;0.80;;;-0.50;99.90;;;;;;5031423;28;20254;-68
2022/01/18 13:37:33;;;;;;;0.80;0.80;;;-0.50;99.90;;;;;;5031103;28;20213;-72
2022/01/18 13:40:05;;;;;;;0.80;0.80;;;-0.60;99.90;;;;;;5031637;28;20212;-69
2022/01/18 13:42:41;;;;;;;1.08;1.00;;;-0.60;99.90;;;;;;5026783;28;20674;-69
2022/01/18 13:45:26;;;;;;;0.80;0.80;;;-0.70;99.90;;;;;;5030676;28;20713;-70
2022/01/18 13:48:00;;;;;;;0.80;0.80;;;-0.60;99.90;;;;;;5030636;28;20685;-70
2022/01/18 13:50:41;;;;;;;0.80;0.80;;;-0.70;99.90;;;;;;5030265;28;20209;-70
2022/01/18 13:53:09;;;;;;;0.80;0.80;;;-0.70;99.90;;;;;;5030751;28;20213;-69
2022/01/18 13:55:37;;;;;;;0.70;0.70;;;-0.70;99.90;;;;;;5030673;28;20214;-69
2022/01/18 13:58:04;;;;;;;0.70;0.70;;;-0.70;99.90;;;;;;5014526;28;20198;-70
2022/01/18 14:00:31;;;;;;;0.80;0.80;;;-0.80;99.90;;;;;;5027365;28;20219;-70
2022/01/18 14:02:57;;;;;;;0.73;0.73;;;-0.80;99.90;;;;;;5016003;28;20674;-69
2022/01/18 14:05:24;;;;;;;0.75;0.75;;;-0.80;99.90;;;;;;5047852;28;20201;-71
2022/01/18 14:08:07;;;;;;;0.80;0.80;;;-0.90;99.90;;;;;;5049369;28;20603;-69
2022/01/18 14:10:33;;;;;;;0.77;0.77;;;-0.90;99.90;;;;;;5049106;28;20206;-73
2022/01/18 14:12:58;;;;;;;0.70;0.70;;;-1.00;99.90;;;;;;5046865;28;20198;-70
2022/01/18 14:15:43;;;;;;;0.70;0.70;;;-1.10;99.90;;;;;;5047103;28;20275;-69
2022/01/18 14:18:09;;;;;;;0.70;0.70;;;-1.10;99.90;;;;;;5045721;28;20209;-69
2022/01/18 14:20:36;;;;;;;0.80;0.80;;;-1.10;99.90;;;;;;5048685;28;20255;-70
2022/01/18 14:23:02;;;;;;;0.70;0.70;;;-1.20;99.90;;;;;;5046655;28;20206;-70